Time;durP1;ratioP1;P1;durP2;ratioP2;P2;SDS_P1;SDS_P2;PMS_P1;PMS_P2;Temp;Humidity;BMP_temperature;BMP_pressure;BME280_temperature;BME280_humidity;BME280_pressure;Samples;Min_cycle;Max_cycle;Signal;HPM_P1;HPM_P2
2023/08/31 00:02:17;;;;;;;0.30;0.30;;;11.20;99.90;;;;;;4971214;28;20042;-76
2023/08/31 00:04:43;;;;;;;0.40;0.30;;;11.20;99.90;;;;;;4962906;28;20114;-76
2023/08/31 00:07:09;;;;;;;1.05;0.30;;;11.20;99.90;;;;;;4966216;28;20086;-76
2023/08/31 00:09:35;;;;;;;0.50;0.30;;;11.20;99.90;;;;;;4935400;29;20043;-76
2023/08/31 00:12:04;;;;;;;0.40;0.32;;;11.20;99.90;;;;;;4964226;28;20069;-76
2023/08/31 00:14:30;;;;;;;0.40;0.40;;;11.20;99.90;;;;;;4971250;28;20067;-77
2023/08/31 00:16:57;;;;;;;0.47;0.32;;;11.30;99.90;;;;;;4954794;28;20503;-76
2023/08/31 00:19:23;;;;;;;1.45;0.47;;;11.30;99.90;;;;;;4970609;28;20125;-76
2023/08/31 00:21:49;;;;;;;0.60;0.40;;;11.20;99.90;;;;;;4971122;28;20118;-76
2023/08/31 00:24:15;;;;;;;0.50;0.50;;;11.30;99.90;;;;;;4968501;28;20063;-76
2023/08/31 00:26:42;;;;;;;0.98;0.50;;;11.20;99.90;;;;;;4968681;28;20454;-76
2023/08/31 00:29:10;;;;;;;0.30;0.30;;;11.30;99.90;;;;;;4970255;28;20046;-76
2023/08/31 00:31:36;;;;;;;0.30;0.30;;;11.30;99.90;;;;;;5000828;28;20071;-76
2023/08/31 00:34:03;;;;;;;0.57;0.50;;;11.30;99.90;;;;;;4972409;28;20035;-76
2023/08/31 00:36:31;;;;;;;1.42;0.63;;;11.30;99.90;;;;;;4970250;28;20038;-76
2023/08/31 00:38:56;;;;;;;0.47;0.47;;;11.30;99.90;;;;;;4970857;28;20073;-76
2023/08/31 00:41:22;;;;;;;1.00;0.50;;;11.30;99.90;;;;;;4964720;28;20046;-76
2023/08/31 00:43:48;;;;;;;0.90;0.50;;;11.20;99.90;;;;;;4966156;28;20047;-76
2023/08/31 00:46:14;;;;;;;0.93;0.60;;;11.20;99.90;;;;;;4965810;28;20042;-76
2023/08/31 00:48:41;;;;;;;0.57;0.40;;;11.20;99.90;;;;;;4951957;28;20122;-77
2023/08/31 00:51:07;;;;;;;0.70;0.50;;;11.20;99.90;;;;;;4967044;28;20038;-76
2023/08/31 00:53:33;;;;;;;;;;;11.20;99.90;;;;;;4966714;28;20390;-76
2023/08/31 00:55:59;;;;;;;1.08;0.60;;;11.20;99.90;;;;;;4994491;28;19921;-77
2023/08/31 00:58:25;;;;;;;0.90;0.73;;;11.20;99.90;;;;;;4969260;28;20046;-77
2023/08/31 01:01:08;;;;;;;;;;;11.20;99.90;;;;;;4965628;28;20049;-77
2023/08/31 01:03:33;;;;;;;1.25;0.82;;;11.20;99.90;;;;;;4950855;28;19926;-77
2023/08/31 01:06:06;;;;;;;0.93;0.70;;;11.10;99.90;;;;;;4999131;28;20457;-77
2023/08/31 01:08:40;;;;;;;1.13;0.70;;;11.10;99.90;;;;;;4988808;28;20501;-77
2023/08/31 01:11:24;;;;;;;0.90;0.80;;;11.10;99.90;;;;;;4961463;28;20113;-77
2023/08/31 01:13:58;;;;;;;0.60;0.60;;;11.10;99.90;;;;;;4968344;28;20044;-77
2023/08/31 01:16:25;;;;;;;0.95;0.60;;;11.00;99.90;;;;;;4968642;28;20086;-77
2023/08/31 01:18:51;;;;;;;0.73;0.55;;;11.00;99.90;;;;;;4950809;28;20058;-77
2023/08/31 01:21:24;;;;;;;0.88;0.60;;;10.90;99.90;;;;;;4979378;28;20476;-77
2023/08/31 01:23:54;;;;;;;1.13;0.70;;;10.90;99.90;;;;;;4959791;28;20050;-77
2023/08/31 01:26:21;;;;;;;0.40;0.40;;;10.90;99.90;;;;;;4967899;28;20043;-77
2023/08/31 01:28:48;;;;;;;0.88;0.57;;;10.90;99.90;;;;;;4969500;28;20359;-77
2023/08/31 01:31:15;;;;;;;0.60;0.50;;;10.80;99.90;;;;;;4969090;28;20047;-77
2023/08/31 01:33:41;;;;;;;0.55;0.50;;;10.80;99.90;;;;;;4968947;28;20468;-77
2023/08/31 01:36:22;;;;;;;0.75;0.60;;;10.80;99.90;;;;;;4963822;28;20042;-77
2023/08/31 01:38:51;;;;;;;0.95;0.60;;;10.70;99.90;;;;;;4969511;28;20051;-77
2023/08/31 01:41:21;;;;;;;1.20;0.50;;;10.70;99.90;;;;;;4968289;28;20070;-77
2023/08/31 01:43:48;;;;;;;0.75;0.60;;;10.60;99.90;;;;;;4968310;28;20050;-77
2023/08/31 01:46:15;;;;;;;0.98;0.63;;;10.50;99.90;;;;;;4969453;28;20047;-77
2023/08/31 01:48:41;;;;;;;0.50;0.50;;;10.50;99.90;;;;;;4949891;29;20496;-77
2023/08/31 01:51:08;;;;;;;0.80;0.50;;;10.50;99.90;;;;;;4967686;28;20042;-77
2023/08/31 01:53:34;;;;;;;0.40;0.40;;;10.50;99.90;;;;;;4965529;28;20043;-76
2023/08/31 01:56:00;;;;;;;0.30;0.30;;;10.40;99.90;;;;;;4969917;28;20058;-77
2023/08/31 01:58:26;;;;;;;0.40;0.40;;;10.40;99.90;;;;;;4965317;28;20154;-76
2023/08/31 02:00:52;;;;;;;0.98;0.40;;;10.50;99.90;;;;;;4986384;28;20049;-76
2023/08/31 02:03:18;;;;;;;0.60;0.40;;;10.50;99.90;;;;;;4971682;28;20641;-75
2023/08/31 02:05:43;;;;;;;0.30;0.30;;;10.40;99.90;;;;;;4971015;28;20443;-76
2023/08/31 02:08:09;;;;;;;0.63;0.38;;;10.40;99.90;;;;;;4976882;28;20039;-76
2023/08/31 02:10:35;;;;;;;0.30;0.30;;;10.50;99.90;;;;;;4972606;28;20066;-76
2023/08/31 02:13:00;;;;;;;1.17;0.40;;;10.50;99.90;;;;;;4971559;28;20120;-76
2023/08/31 02:15:26;;;;;;;0.47;0.30;;;10.50;99.90;;;;;;4954605;28;20097;-76
2023/08/31 02:17:54;;;;;;;0.43;0.30;;;10.50;99.90;;;;;;4965319;28;20058;-76
2023/08/31 02:20:20;;;;;;;0.30;0.30;;;10.50;99.90;;;;;;4983925;28;20074;-76
2023/08/31 02:22:46;;;;;;;0.73;0.30;;;10.50;99.90;;;;;;4972674;28;20049;-76
2023/08/31 02:25:12;;;;;;;0.60;0.32;;;10.50;99.90;;;;;;4956838;28;20098;-76
2023/08/31 02:27:38;;;;;;;;;;;10.50;99.90;;;;;;4981839;28;20494;-75
2023/08/31 02:30:05;;;;;;;0.28;0.22;;;10.50;99.90;;;;;;4960764;28;19918;-76
2023/08/31 02:32:30;;;;;;;0.63;0.38;;;10.50;99.90;;;;;;5002470;28;20043;-76
2023/08/31 02:34:56;;;;;;;0.68;0.45;;;10.50;99.90;;;;;;4972754;28;20089;-76
2023/08/31 02:37:22;;;;;;;0.30;0.30;;;10.50;99.90;;;;;;4972624;28;20046;-76
2023/08/31 02:39:48;;;;;;;0.73;0.30;;;10.50;99.90;;;;;;4956771;28;20050;-76
2023/08/31 02:42:14;;;;;;;0.65;0.30;;;10.50;99.90;;;;;;4972231;28;20054;-76
2023/08/31 02:44:40;;;;;;;0.30;0.30;;;10.50;99.90;;;;;;4956357;28;20536;-76
2023/08/31 02:47:06;;;;;;;0.68;0.28;;;10.50;99.90;;;;;;4959924;28;20087;-76
2023/08/31 02:49:31;;;;;;;0.52;0.20;;;10.50;99.90;;;;;;4995374;28;20399;-76
2023/08/31 02:51:57;;;;;;;0.35;0.30;;;10.50;99.90;;;;;;4951536;29;20050;-76
2023/08/31 02:54:23;;;;;;;0.63;0.20;;;10.50;99.90;;;;;;4964156;28;20518;-76
2023/08/31 02:56:48;;;;;;;1.10;0.30;;;10.50;99.90;;;;;;4953449;28;20045;-76
2023/08/31 02:59:14;;;;;;;0.40;0.35;;;10.60;99.90;;;;;;4945308;28;20054;-76
2023/08/31 03:01:40;;;;;;;0.50;0.30;;;10.50;99.90;;;;;;4957287;28;20126;-76
2023/08/31 03:04:06;;;;;;;0.40;0.40;;;10.50;99.90;;;;;;4975981;28;20372;-76
2023/08/31 03:06:34;;;;;;;0.40;0.25;;;10.50;99.90;;;;;;4978531;28;20074;-76
2023/08/31 03:09:01;;;;;;;0.52;0.30;;;10.40;99.90;;;;;;4956351;28;20049;-76
2023/08/31 03:11:27;;;;;;;0.60;0.30;;;10.50;99.90;;;;;;4954020;28;20039;-76
2023/08/31 03:13:52;;;;;;;0.40;0.28;;;10.40;99.90;;;;;;4964663;28;20039;-76
2023/08/31 03:16:18;;;;;;;0.30;0.17;;;10.40;99.90;;;;;;4963774;28;20043;-76
2023/08/31 03:18:44;;;;;;;0.20;0.20;;;10.40;99.90;;;;;;4971926;28;20086;-76
2023/08/31 03:21:09;;;;;;;0.30;0.20;;;10.40;99.90;;;;;;4972158;28;20118;-76
2023/08/31 03:23:35;;;;;;;0.65;0.30;;;10.30;99.90;;;;;;4971865;28;20061;-76
2023/08/31 03:26:07;;;;;;;0.70;0.40;;;10.30;99.90;;;;;;4958093;28;20507;-76
2023/08/31 03:28:33;;;;;;;0.20;0.10;;;10.30;99.90;;;;;;4971889;28;20050;-76
2023/08/31 03:30:59;;;;;;;0.32;0.20;;;10.30;99.90;;;;;;4953818;28;20039;-76
2023/08/31 03:33:24;;;;;;;0.40;0.20;;;10.40;99.90;;;;;;4955466;28;20397;-76
2023/08/31 03:35:50;;;;;;;1.00;0.30;;;10.30;99.90;;;;;;4969028;28;20047;-76
2023/08/31 03:38:16;;;;;;;0.10;0.10;;;10.40;99.90;;;;;;4960631;28;20118;-76
2023/08/31 03:40:41;;;;;;;0.32;0.10;;;10.40;99.90;;;;;;4971198;28;20069;-76
2023/08/31 03:43:07;;;;;;;0.10;0.10;;;10.40;99.90;;;;;;4939507;28;20119;-76
2023/08/31 03:45:32;;;;;;;0.13;0.10;;;10.50;99.90;;;;;;4939487;28;20070;-76
2023/08/31 03:47:58;;;;;;;0.40;0.20;;;10.50;99.90;;;;;;4968065;28;20173;-76
2023/08/31 03:50:25;;;;;;;0.25;0.15;;;10.50;99.90;;;;;;4961837;28;20098;-77
2023/08/31 03:52:51;;;;;;;0.20;0.20;;;10.50;99.90;;;;;;4958958;28;20074;-77
2023/08/31 03:55:17;;;;;;;0.43;0.20;;;10.50;99.90;;;;;;4970061;28;20118;-77
2023/08/31 03:57:43;;;;;;;0.35;0.30;;;10.50;99.90;;;;;;4955001;28;20114;-77
2023/08/31 04:00:10;;;;;;;0.47;0.40;;;10.50;99.90;;;;;;4962497;28;20069;-77
2023/08/31 04:02:36;;;;;;;0.60;0.40;;;10.50;99.90;;;;;;4967347;28;20491;-76
2023/08/31 04:05:05;;;;;;;0.75;0.50;;;10.40;99.90;;;;;;4953587;28;20143;-77
2023/08/31 04:07:32;;;;;;;0.90;0.50;;;10.40;99.90;;;;;;4968203;28;20080;-77
2023/08/31 04:09:57;;;;;;;0.98;0.50;;;10.40;99.90;;;;;;4945654;29;20043;-77
2023/08/31 04:12:23;;;;;;;0.63;0.50;;;10.50;99.90;;;;;;4961170;28;20118;-77
2023/08/31 04:14:48;;;;;;;0.82;0.52;;;10.40;99.90;;;;;;4935979;28;20061;-77
2023/08/31 04:17:14;;;;;;;1.20;0.60;;;10.50;99.90;;;;;;4966609;28;20557;-77
2023/08/31 04:19:40;;;;;;;1.55;0.40;;;10.50;99.90;;;;;;4967708;28;20047;-77
2023/08/31 04:22:05;;;;;;;0.45;0.45;;;10.50;99.90;;;;;;4968975;28;20131;-76
2023/08/31 04:24:31;;;;;;;0.75;0.40;;;10.50;99.90;;;;;;4959209;28;20046;-76
2023/08/31 04:26:57;;;;;;;0.25;0.20;;;10.50;99.90;;;;;;4947721;28;20105;-76
2023/08/31 04:29:23;;;;;;;0.65;0.30;;;10.50;99.90;;;;;;4961081;28;20077;-76
2023/08/31 04:31:48;;;;;;;0.10;0.10;;;10.60;99.90;;;;;;4921901;28;20042;-76
2023/08/31 04:34:14;;;;;;;0.63;0.25;;;10.50;99.90;;;;;;4970552;28;20042;-76
2023/08/31 04:36:40;;;;;;;0.70;0.30;;;10.50;99.90;;;;;;4971661;28;20042;-76
2023/08/31 04:39:07;;;;;;;0.47;0.20;;;10.50;99.90;;;;;;4968555;28;20078;-77
2023/08/31 04:41:32;;;;;;;0.40;0.20;;;10.50;99.90;;;;;;4963830;28;20061;-76
2023/08/31 04:43:58;;;;;;;0.32;0.30;;;10.50;99.90;;;;;;4938526;28;20034;-76
2023/08/31 04:46:24;;;;;;;0.32;0.15;;;10.50;99.90;;;;;;4960126;28;20477;-76
2023/08/31 04:48:50;;;;;;;0.80;0.30;;;10.50;99.90;;;;;;4969367;28;20157;-76
2023/08/31 04:51:32;;;;;;;0.40;0.20;;;10.50;99.90;;;;;;4952449;28;20042;-76
2023/08/31 04:53:59;;;;;;;0.60;0.30;;;10.50;99.90;;;;;;4996922;28;20050;-76
2023/08/31 04:56:25;;;;;;;0.50;0.30;;;10.50;99.90;;;;;;4952331;28;20506;-76
2023/08/31 04:58:50;;;;;;;0.47;0.30;;;10.50;99.90;;;;;;4967640;28;20035;-77
2023/08/31 05:01:16;;;;;;;0.30;0.30;;;10.50;99.90;;;;;;4969818;28;20129;-76
2023/08/31 05:03:42;;;;;;;0.30;0.22;;;10.50;99.90;;;;;;4953937;28;20129;-77
2023/08/31 05:06:07;;;;;;;0.28;0.28;;;10.60;99.90;;;;;;4954024;28;20051;-76
2023/08/31 05:08:33;;;;;;;0.55;0.32;;;10.50;99.90;;;;;;4954140;28;20133;-77
2023/08/31 05:10:59;;;;;;;0.80;0.28;;;10.60;99.90;;;;;;4970187;28;20042;-76
2023/08/31 05:13:25;;;;;;;0.28;0.20;;;10.50;99.90;;;;;;4956994;28;20058;-76
2023/08/31 05:15:51;;;;;;;1.50;0.63;;;10.50;99.90;;;;;;4953419;28;20414;-76
2023/08/31 05:18:16;;;;;;;0.40;0.20;;;10.60;99.90;;;;;;4958530;28;20054;-76
2023/08/31 05:20:46;;;;;;;0.43;0.30;;;10.50;99.90;;;;;;4948786;29;20042;-76
2023/08/31 05:23:11;;;;;;;0.98;0.35;;;10.50;99.90;;;;;;4960932;28;20419;-76
2023/08/31 05:25:45;;;;;;;0.70;0.57;;;10.60;99.90;;;;;;4984084;28;20050;-76
2023/08/31 05:28:10;;;;;;;0.60;0.50;;;10.60;99.90;;;;;;4953528;28;20114;-76
2023/08/31 05:30:36;;;;;;;0.95;0.60;;;10.70;99.90;;;;;;4965882;28;20562;-76
2023/08/31 05:33:03;;;;;;;0.47;0.38;;;10.70;99.90;;;;;;4972468;28;20438;-77
2023/08/31 05:35:30;;;;;;;0.93;0.60;;;10.70;99.90;;;;;;4963274;28;20047;-77
2023/08/31 05:37:55;;;;;;;1.17;0.35;;;10.80;99.90;;;;;;4955368;28;20038;-77
2023/08/31 05:40:21;;;;;;;0.57;0.40;;;10.90;99.90;;;;;;4956244;28;20546;-77
2023/08/31 05:42:47;;;;;;;0.95;0.40;;;10.90;99.90;;;;;;4973133;28;20546;-77
2023/08/31 05:45:13;;;;;;;0.50;0.20;;;10.90;99.90;;;;;;4969939;28;20047;-78
2023/08/31 05:47:40;;;;;;;0.75;0.30;;;10.90;99.90;;;;;;4972638;28;20475;-76
2023/08/31 05:50:07;;;;;;;0.73;0.40;;;11.10;99.90;;;;;;4972736;28;20038;-76
2023/08/31 05:52:32;;;;;;;;;;;11.10;99.90;;;;;;4973909;28;20147;-76
2023/08/31 05:54:58;;;;;;;1.73;0.68;;;11.30;99.90;;;;;;4994967;28;19946;-77
2023/08/31 05:57:25;;;;;;;1.63;0.60;;;11.30;99.90;;;;;;4976575;28;20478;-79
2023/08/31 05:59:51;;;;;;;0.70;0.30;;;11.30;99.90;;;;;;4976803;28;20050;-77
2023/08/31 06:02:17;;;;;;;0.60;0.40;;;11.50;99.90;;;;;;4971386;28;20125;-77
2023/08/31 06:04:43;;;;;;;0.40;0.40;;;11.50;99.90;;;;;;4953954;29;20154;-77
2023/08/31 06:07:08;;;;;;;0.55;0.47;;;11.60;99.90;;;;;;4969558;28;20035;-77
2023/08/31 06:09:34;;;;;;;0.80;0.32;;;11.80;99.90;;;;;;4946010;28;20545;-76
2023/08/31 06:12:00;;;;;;;1.38;0.45;;;11.90;99.90;;;;;;4970642;28;20057;-77
2023/08/31 06:14:26;;;;;;;0.68;0.40;;;12.10;99.90;;;;;;4953990;28;20063;-76
2023/08/31 06:16:52;;;;;;;1.77;0.50;;;12.20;99.90;;;;;;4970929;28;20038;-77
2023/08/31 06:19:18;;;;;;;1.63;0.40;;;12.30;99.90;;;;;;4954056;28;20549;-76
2023/08/31 06:21:44;;;;;;;0.75;0.30;;;12.40;99.90;;;;;;4966093;28;20055;-77
2023/08/31 06:24:12;;;;;;;0.52;0.40;;;12.50;99.90;;;;;;4940627;28;20031;-77
2023/08/31 06:26:38;;;;;;;0.43;0.30;;;12.40;99.90;;;;;;4985416;28;20124;-77
2023/08/31 06:29:04;;;;;;;1.08;0.40;;;12.40;99.90;;;;;;4972739;28;20043;-77
2023/08/31 06:31:30;;;;;;;0.60;0.30;;;12.50;99.90;;;;;;4958844;28;20054;-77
2023/08/31 06:33:55;;;;;;;0.30;0.30;;;12.70;99.90;;;;;;4971919;28;20371;-77
2023/08/31 06:36:23;;;;;;;1.02;0.30;;;12.90;99.90;;;;;;4972513;28;20096;-77
2023/08/31 06:38:49;;;;;;;2.10;0.52;;;13.30;99.90;;;;;;4972702;28;20046;-77
2023/08/31 06:41:15;;;;;;;0.75;0.30;;;13.70;99.90;;;;;;4952542;28;20291;-77
2023/08/31 06:43:41;;;;;;;0.45;0.30;;;14.10;99.90;;;;;;4972685;28;20043;-76
2023/08/31 06:46:07;;;;;;;0.77;0.30;;;14.40;99.90;;;;;;4970509;28;20473;-89
2023/08/31 06:48:33;;;;;;;1.70;0.57;;;14.60;99.90;;;;;;4967910;28;20046;-77
2023/08/31 06:50:58;;;;;;;;;;;14.60;99.90;;;;;;4956516;28;20062;-76
2023/08/31 06:53:24;;;;;;;0.93;0.50;;;14.70;99.90;;;;;;4993602;28;20370;-76
2023/08/31 06:55:50;;;;;;;1.98;0.88;;;14.80;99.90;;;;;;4972145;28;20121;-77
2023/08/31 06:58:16;;;;;;;0.75;0.40;;;14.90;99.90;;;;;;4968310;28;20490;-77
2023/08/31 07:00:42;;;;;;;1.42;0.40;;;15.10;99.90;;;;;;4939791;28;20046;-83
2023/08/31 07:03:08;;;;;;;1.33;0.30;;;15.30;99.90;;;;;;4951867;28;20047;-83
2023/08/31 07:05:37;;;;;;;0.47;0.40;;;15.40;99.90;;;;;;4970590;28;20057;-77
2023/08/31 07:08:03;;;;;;;0.65;0.38;;;15.60;99.90;;;;;;4969631;28;20043;-78
2023/08/31 07:10:29;;;;;;;0.47;0.35;;;15.80;99.90;;;;;;4967089;28;20051;-77
2023/08/31 07:12:55;;;;;;;0.80;0.35;;;16.00;99.90;;;;;;4970479;28;20042;-77
2023/08/31 07:15:20;;;;;;;1.55;0.40;;;16.20;99.90;;;;;;4969938;28;20509;-76
2023/08/31 07:17:46;;;;;;;1.08;0.40;;;16.30;99.90;;;;;;4955028;28;20122;-76
2023/08/31 07:20:12;;;;;;;0.98;0.50;;;16.20;99.90;;;;;;4955085;28;20042;-76
2023/08/31 07:22:38;;;;;;;;;;;16.10;99.90;;;;;;4972073;28;20109;-77
2023/08/31 07:25:05;;;;;;;1.98;0.60;;;16.20;99.90;;;;;;4971177;28;19926;-77
2023/08/31 07:27:31;;;;;;;1.08;0.60;;;16.10;99.90;;;;;;4946747;28;20447;-77
2023/08/31 07:29:57;;;;;;;1.08;0.50;;;16.10;99.90;;;;;;4948364;28;20109;-76
2023/08/31 07:32:23;;;;;;;1.13;0.50;;;16.20;99.90;;;;;;4965843;28;20039;-77
2023/08/31 07:34:48;;;;;;;1.63;0.70;;;16.20;99.90;;;;;;4964635;28;20058;-77
2023/08/31 07:37:14;;;;;;;2.15;0.60;;;16.20;99.90;;;;;;4969028;28;20038;-77
2023/08/31 07:39:40;;;;;;;1.58;0.35;;;16.10;1.00;;;;;;4967765;28;20050;-77
2023/08/31 07:42:06;;;;;;;1.38;0.40;;;16.20;1.00;;;;;;4951784;28;20053;-77
2023/08/31 07:44:32;;;;;;;1.83;0.43;;;16.30;1.00;;;;;;4968246;28;20824;-77
2023/08/31 07:46:57;;;;;;;1.40;0.57;;;16.30;1.00;;;;;;4967976;28;20050;-76
2023/08/31 07:49:23;;;;;;;2.17;0.40;;;16.30;1.00;;;;;;4970557;28;20098;-77
2023/08/31 07:51:49;;;;;;;1.05;0.50;;;16.30;99.90;;;;;;4967340;28;20454;-77
2023/08/31 07:54:22;;;;;;;2.00;0.40;;;16.50;1.00;;;;;;4967374;28;20430;-76
2023/08/31 07:56:47;;;;;;;0.93;0.40;;;16.40;12.30;;;;;;4968481;28;20134;-77
2023/08/31 07:59:13;;;;;;;1.08;0.40;;;16.50;99.90;;;;;;4967460;28;20137;-76
2023/08/31 08:01:40;;;;;;;0.77;0.38;;;16.50;99.90;;;;;;4964329;28;20103;-76
2023/08/31 08:04:06;;;;;;;2.15;0.40;;;16.70;99.90;;;;;;4968278;28;20118;-76
2023/08/31 08:06:32;;;;;;;1.23;0.35;;;16.80;99.90;;;;;;4983611;28;20101;-76
2023/08/31 08:08:57;;;;;;;;;;;16.80;1.00;;;;;;4971723;28;20054;-76
2023/08/31 08:11:23;;;;;;;1.27;0.30;;;16.90;1.00;;;;;;4995503;28;19922;-76
2023/08/31 08:13:49;;;;;;;3.05;1.00;;;17.10;1.00;;;;;;4966847;28;20569;-76
2023/08/31 08:16:15;;;;;;;6.68;2.80;;;17.10;99.90;;;;;;4969096;28;20046;-76
2023/08/31 08:18:41;;;;;;;3.85;1.42;;;17.10;99.90;;;;;;4982550;28;20046;-77
2023/08/31 08:21:06;;;;;;;;;;;17.40;99.90;;;;;;4967972;28;20085;-77
2023/08/31 08:23:32;;;;;;;1.63;0.47;;;17.20;99.90;;;;;;4968472;28;19973;-77
2023/08/31 08:25:59;;;;;;;;;;;17.30;99.90;;;;;;4953451;28;20124;-77
2023/08/31 08:28:25;;;;;;;0.88;0.30;;;17.40;99.90;;;;;;5001298;28;20426;-77
2023/08/31 08:30:51;;;;;;;1.45;0.32;;;17.40;6.90;;;;;;4970398;28;20447;-76
2023/08/31 08:33:17;;;;;;;;;;;17.60;1.00;;;;;;4971397;28;20058;-82
2023/08/31 08:35:43;;;;;;;2.17;0.75;;;17.50;99.90;;;;;;5001514;28;19929;-76
2023/08/31 08:38:08;;;;;;;;;;;17.60;99.90;;;;;;4968170;28;20047;-76
2023/08/31 08:40:35;;;;;;;1.10;0.30;;;17.50;99.90;;;;;;4996977;28;19918;-77
2023/08/31 08:43:01;;;;;;;0.70;0.30;;;17.70;1.00;;;;;;4968468;28;20502;-79
2023/08/31 08:45:36;;;;;;;1.83;0.55;;;17.80;99.90;;;;;;4958173;28;20035;-77
2023/08/31 08:48:05;;;;;;;1.90;0.47;;;18.00;99.90;;;;;;4971504;28;20043;-77
2023/08/31 08:50:33;;;;;;;1.45;0.50;;;17.90;99.90;;;;;;4961058;28;20431;-76
2023/08/31 08:53:01;;;;;;;1.52;0.47;;;17.50;99.90;;;;;;4967551;28;20046;-76
2023/08/31 08:55:27;;;;;;;1.83;0.50;;;17.40;1.00;;;;;;4983785;28;20077;-76
2023/08/31 08:57:53;;;;;;;;;;;17.50;1.00;;;;;;4966663;28;20059;-76
2023/08/31 09:00:19;;;;;;;1.30;0.50;;;17.90;1.00;;;;;;4996558;28;19918;-76
2023/08/31 09:02:45;;;;;;;;;;;18.30;99.90;;;;;;4967033;28;20085;-76
2023/08/31 09:05:11;;;;;;;0.52;0.20;;;18.70;99.90;;;;;;4967036;28;19933;-77
2023/08/31 09:07:37;;;;;;;;;;;18.30;99.90;;;;;;4968681;28;20403;-76
2023/08/31 09:10:04;;;;;;;1.75;0.40;;;17.60;99.90;;;;;;4969494;28;19988;-76
2023/08/31 09:12:30;;;;;;;1.77;0.63;;;16.90;99.90;;;;;;4969599;28;20057;-76
2023/08/31 09:15:04;;;;;;;;;;;16.30;67.30;;;;;;4969639;28;20042;-75
2023/08/31 09:17:48;;;;;;;0.60;0.30;;;15.80;99.90;;;;;;4969762;28;19918;-75
2023/08/31 09:20:14;;;;;;;0.50;0.30;;;15.80;72.30;;;;;;4967014;28;20051;-76
2023/08/31 09:22:42;;;;;;;;;;;16.00;1.00;;;;;;4970071;28;20042;-75
2023/08/31 09:25:09;;;;;;;0.95;0.35;;;16.40;2.30;;;;;;4969647;28;19933;-75
2023/08/31 09:27:38;;;;;;;0.70;0.40;;;16.90;20.30;;;;;;4969760;28;20078;-75
2023/08/31 09:30:06;;;;;;;1.00;0.35;;;17.10;99.90;;;;;;4967543;28;20081;-75
2023/08/31 09:32:32;;;;;;;1.40;0.30;;;17.10;99.90;;;;;;4966706;28;20046;-75
2023/08/31 09:35:02;;;;;;;;;;;17.30;1.00;;;;;;4969549;28;20126;-75
2023/08/31 09:37:28;;;;;;;2.53;0.43;;;17.70;1.00;;;;;;5000638;28;20301;-75
2023/08/31 09:39:53;;;;;;;;;;;17.80;38.90;;;;;;4953426;28;20046;-75
2023/08/31 09:42:20;;;;;;;1.23;0.30;;;18.10;1.00;;;;;;4969564;28;19968;-75
2023/08/31 09:44:49;;;;;;;1.25;0.50;;;18.30;99.90;;;;;;4968402;28;20512;-75
2023/08/31 09:47:15;;;;;;;0.90;0.38;;;18.40;99.90;;;;;;4970029;28;20394;-75
2023/08/31 09:49:43;;;;;;;2.92;0.50;;;18.60;99.90;;;;;;4967107;28;20051;-75
2023/08/31 09:52:09;;;;;;;2.40;0.50;;;18.80;58.60;;;;;;4963400;28;20075;-75
2023/08/31 09:54:36;;;;;;;2.35;0.70;;;18.60;99.90;;;;;;4950577;28;20071;-75
2023/08/31 09:57:02;;;;;;;1.65;0.50;;;18.40;56.40;;;;;;4969089;28;20065;-75
2023/08/31 09:59:28;;;;;;;1.60;0.60;;;18.10;8.70;;;;;;4968864;28;20090;-75
2023/08/31 10:01:56;;;;;;;;;;;18.00;14.00;;;;;;4969439;28;20497;-75
2023/08/31 10:04:22;;;;;;;1.58;0.47;;;18.20;92.50;;;;;;4999809;28;19954;-75
2023/08/31 10:06:50;;;;;;;1.63;0.60;;;17.90;1.00;;;;;;4954564;28;20062;-75
2023/08/31 10:09:16;;;;;;;1.65;0.52;;;17.60;99.90;;;;;;4957143;28;20051;-76
2023/08/31 10:11:42;;;;;;;1.17;0.50;;;17.30;99.90;;;;;;4969898;28;20105;-75
2023/08/31 10:14:10;;;;;;;0.65;0.30;;;17.00;99.90;;;;;;4969170;28;20537;-76
2023/08/31 10:16:40;;;;;;;0.70;0.38;;;16.60;99.90;;;;;;4969202;28;20566;-75
2023/08/31 10:19:05;;;;;;;2.67;0.57;;;16.40;1.00;;;;;;4958242;28;20476;-75
2023/08/31 10:21:32;;;;;;;;;;;16.10;97.80;;;;;;4973702;28;20512;-75
2023/08/31 10:23:57;;;;;;;1.30;0.45;;;16.00;99.90;;;;;;4973071;28;19925;-75
2023/08/31 10:26:28;;;;;;;;;;;16.10;94.80;;;;;;4951772;28;20091;-73
2023/08/31 10:28:54;;;;;;;1.55;0.60;;;16.40;99.90;;;;;;4969896;28;19922;-74
2023/08/31 10:31:22;;;;;;;1.75;0.50;;;16.90;99.90;;;;;;4970256;28;20035;-74
2023/08/31 10:34:04;;;;;;;0.52;0.40;;;17.40;99.90;;;;;;4948267;28;20050;-74
2023/08/31 10:36:44;;;;;;;1.73;0.55;;;18.00;1.00;;;;;;4980472;28;20054;-74
2023/08/31 10:39:19;;;;;;;0.77;0.50;;;18.40;1.00;;;;;;4971280;28;20046;-75
2023/08/31 10:41:57;;;;;;;1.00;0.60;;;18.70;99.90;;;;;;4960179;28;20043;-75
2023/08/31 10:44:27;;;;;;;1.50;0.52;;;18.60;9.00;;;;;;4972570;28;20083;-75
2023/08/31 10:46:54;;;;;;;1.73;0.80;;;18.50;1.00;;;;;;4999841;28;20047;-75
2023/08/31 10:49:23;;;;;;;2.00;0.55;;;18.40;99.90;;;;;;4979218;28;20082;-74
2023/08/31 10:51:50;;;;;;;1.08;0.43;;;18.10;1.00;;;;;;5004454;28;20043;-75
2023/08/31 10:54:23;;;;;;;1.02;0.50;;;17.80;99.90;;;;;;4971937;28;20406;-75
2023/08/31 10:57:02;;;;;;;1.55;0.30;;;17.60;99.90;;;;;;4967396;28;20140;-75
2023/08/31 10:59:52;;;;;;;1.38;0.55;;;17.40;99.90;;;;;;4970437;28;20169;-75
2023/08/31 11:02:40;;;;;;;1.38;0.55;;;17.10;99.90;;;;;;4958994;28;20057;-75
2023/08/31 11:05:17;;;;;;;1.27;0.65;;;16.90;99.90;;;;;;4972205;28;20063;-75
2023/08/31 11:07:45;;;;;;;1.10;0.50;;;16.90;99.90;;;;;;4956325;28;20035;-75
2023/08/31 11:10:13;;;;;;;1.35;0.50;;;17.00;1.00;;;;;;4972522;28;20127;-75
2023/08/31 11:12:45;;;;;;;0.25;0.20;;;17.30;99.90;;;;;;4970663;28;20371;-74
2023/08/31 11:15:13;;;;;;;0.35;0.20;;;18.00;99.90;;;;;;4970549;28;20085;-74
2023/08/31 11:17:40;;;;;;;1.23;0.50;;;18.60;99.90;;;;;;4992003;28;20399;-74
2023/08/31 11:20:08;;;;;;;0.85;0.40;;;18.90;99.90;;;;;;4936469;28;20069;-74
2023/08/31 11:22:38;;;;;;;0.70;0.30;;;19.20;99.90;;;;;;4969588;28;20691;-74
2023/08/31 11:25:04;;;;;;;0.93;0.30;;;19.10;1.00;;;;;;4984755;28;20202;-75
2023/08/31 11:27:30;;;;;;;0.82;0.40;;;18.60;1.00;;;;;;4965186;28;20051;-76
2023/08/31 11:29:55;;;;;;;;;;;18.30;1.00;;;;;;4969841;28;20047;-76
2023/08/31 11:32:24;;;;;;;2.72;0.70;;;18.00;6.70;;;;;;4970749;28;19925;-76
2023/08/31 11:34:50;;;;;;;2.53;0.80;;;17.80;99.90;;;;;;4970755;28;20081;-76
2023/08/31 11:37:16;;;;;;;;;;;17.70;99.90;;;;;;4969396;28;20078;-76
2023/08/31 11:39:48;;;;;;;1.33;0.50;;;17.70;1.00;;;;;;4970379;28;19918;-75
2023/08/31 11:42:15;;;;;;;1.30;0.50;;;17.70;99.90;;;;;;4970656;28;20058;-76
2023/08/31 11:44:41;;;;;;;2.55;0.77;;;17.80;99.90;;;;;;4967407;28;20109;-76
2023/08/31 11:47:07;;;;;;;;;;;17.90;18.80;;;;;;4964791;28;20050;-76
2023/08/31 11:49:33;;;;;;;1.38;0.50;;;18.70;99.90;;;;;;4968713;28;19922;-76
2023/08/31 11:51:58;;;;;;;;;;;19.30;99.90;;;;;;4965096;28;20043;-76
2023/08/31 11:54:25;;;;;;;3.20;0.80;;;19.30;99.90;;;;;;4968367;28;19926;-76
2023/08/31 11:56:51;;;;;;;1.52;0.40;;;18.60;1.80;;;;;;4968413;28;20070;-76
2023/08/31 11:59:18;;;;;;;;;;;18.00;99.90;;;;;;4969552;28;20081;-76
2023/08/31 12:01:46;;;;;;;1.95;0.52;;;17.60;99.90;;;;;;5000319;28;19922;-76
2023/08/31 12:04:29;;;;;;;1.05;0.40;;;17.30;1.00;;;;;;4980473;28;20043;-76
2023/08/31 12:07:06;;;;;;;1.33;0.40;;;17.60;1.00;;;;;;4970031;28;20160;-76
2023/08/31 12:09:32;;;;;;;0.80;0.30;;;18.20;1.00;;;;;;4982818;28;20125;-76
2023/08/31 12:11:58;;;;;;;1.23;0.60;;;18.60;99.90;;;;;;4966935;28;20039;-76
2023/08/31 12:14:24;;;;;;;;;;;19.10;1.00;;;;;;4969168;28;20046;-75
2023/08/31 12:16:52;;;;;;;1.42;0.55;;;19.10;99.90;;;;;;4983180;28;19922;-75
2023/08/31 12:19:18;;;;;;;2.08;0.45;;;18.70;1.00;;;;;;4954216;28;20122;-76
2023/08/31 12:21:46;;;;;;;1.25;0.50;;;18.20;99.90;;;;;;4968047;28;20039;-76
2023/08/31 12:24:12;;;;;;;1.38;0.55;;;18.00;63.80;;;;;;4983755;28;20544;-76
2023/08/31 12:26:38;;;;;;;1.33;0.60;;;17.80;99.90;;;;;;4965727;28;20046;-76
2023/08/31 12:29:07;;;;;;;;;;;18.00;99.90;;;;;;4953314;28;20376;-76
2023/08/31 12:31:33;;;;;;;1.10;0.43;;;18.10;55.00;;;;;;5001664;28;20053;-76
2023/08/31 12:34:00;;;;;;;1.23;0.40;;;17.90;1.00;;;;;;4969010;28;20491;-76
2023/08/31 12:36:26;;;;;;;0.75;0.43;;;17.70;90.70;;;;;;4968729;28;20058;-76
2023/08/31 12:38:51;;;;;;;;;;;17.60;99.90;;;;;;4952835;28;20047;-75
2023/08/31 12:41:19;;;;;;;2.28;0.85;;;17.50;99.90;;;;;;4993951;28;20401;-75
2023/08/31 12:43:45;;;;;;;1.30;0.60;;;17.50;99.90;;;;;;4951023;28;20148;-75
2023/08/31 12:46:13;;;;;;;;;;;17.70;33.10;;;;;;4933845;28;20546;-76
2023/08/31 12:48:39;;;;;;;3.28;0.65;;;18.20;27.60;;;;;;4982972;28;19921;-76
2023/08/31 12:51:05;;;;;;;2.47;0.70;;;18.60;99.90;;;;;;4968637;28;20046;-76
2023/08/31 12:53:30;;;;;;;;;;;19.00;5.60;;;;;;4952026;28;20039;-76
2023/08/31 12:55:56;;;;;;;2.75;0.80;;;19.60;99.90;;;;;;4968486;28;20012;-76